Time;durP1;ratioP1;P1;durP2;ratioP2;P2;SDS_P1;SDS_P2;PMS_P1;PMS_P2;Temp;Humidity;BMP_temperature;BMP_pressure;BME280_temperature;BME280_humidity;BME280_pressure;Samples;Min_cycle;Max_cycle;Signal;HPM_P1;HPM_P2
2022/07/16 00:04:09;;;;;;;5.80;4.50;;;;;;;11.88;70.01;98983.55;219696;1277;24298;-70
2022/07/16 00:09:12;;;;;;;5.90;4.80;;;;;;;11.79;70.49;98987.77;219721;1277;23403;-69
2022/07/16 00:14:14;;;;;;;7.00;4.50;;;;;;;11.72;70.90;98987.08;219648;1277;22567;-69
2022/07/16 00:19:20;;;;;;;7.70;4.40;;;;;;;11.64;71.13;98984.61;219582;1277;22563;-70
2022/07/16 00:24:30;;;;;;;5.70;3.90;;;;;;;11.57;71.55;98981.15;219689;1278;23809;-71
2022/07/16 00:29:43;;;;;;;6.30;4.30;;;;;;;11.53;71.89;98973.77;219706;1278;22564;-68
2022/07/16 00:34:45;;;;;;;4.10;3.60;;;;;;;11.48;71.71;98966.64;219589;1278;22581;-70
2022/07/16 00:39:47;;;;;;;7.10;3.40;;;;;;;11.44;71.71;98962.24;219682;1278;23121;-70
2022/07/16 00:44:50;;;;;;;3.70;3.10;;;;;;;11.42;71.78;98963.56;219792;1278;23046;-70
2022/07/16 00:49:54;;;;;;;4.30;3.10;;;;;;;11.40;71.76;98965.14;219781;1278;23987;-69
2022/07/16 00:54:57;;;;;;;6.40;3.20;;;;;;;11.38;71.76;98965.16;219654;1278;302273;-69
2022/07/16 00:59:59;;;;;;;4.50;3.10;;;;;;;11.37;71.86;98962.29;219688;1277;24173;-70
2022/07/16 01:05:02;;;;;;;3.40;3.00;;;;;;;11.35;71.88;98963.80;219785;1278;23300;-70
2022/07/16 01:10:06;;;;;;;5.30;3.60;;;;;;;11.34;71.62;98960.86;219715;1277;26393;-69
2022/07/16 01:15:09;;;;;;;6.50;4.20;;;;;;;11.33;71.52;98966.02;219991;1278;22581;-70
2022/07/16 01:20:20;;;;;;;5.60;4.00;;;;;;;11.29;71.42;98965.39;219680;1278;22564;-70
2022/07/16 01:25:23;;;;;;;4.40;3.80;;;;;;;11.23;71.78;98963.17;219923;1278;25967;-70
2022/07/16 01:30:25;;;;;;;6.00;4.20;;;;;;;11.16;71.84;98956.71;219821;1277;25422;-70
2022/07/16 01:35:28;;;;;;;5.00;4.10;;;;;;;11.08;71.87;98953.52;219752;1278;22549;-70
2022/07/16 01:40:43;;;;;;;6.40;4.30;;;;;;;10.99;71.86;98948.92;219836;1278;22827;-70
2022/07/16 01:45:46;;;;;;;6.70;4.70;;;;;;;10.93;71.94;98945.14;219987;1278;25390;-70
2022/07/16 01:50:49;;;;;;;5.00;4.50;;;;;;;10.86;72.09;98943.16;219635;1278;22573;-70
2022/07/16 01:55:51;;;;;;;8.00;4.80;;;;;;;10.79;72.32;98943.67;219770;1278;22573;-71
2022/07/16 02:00:54;;;;;;;5.10;4.70;;;;;;;10.72;72.43;98943.38;219701;1277;22574;-73
2022/07/16 02:05:57;;;;;;;4.40;4.00;;;;;;;10.65;72.58;98940.50;219742;1278;22637;-70
2022/07/16 02:10:59;;;;;;;4.00;3.60;;;;;;;10.58;72.74;98941.98;219760;1277;22651;-69
2022/07/16 02:16:22;;;;;;;4.40;3.90;;;;;;;10.52;72.88;98933.63;219689;1277;25382;-69
2022/07/16 02:21:24;;;;;;;5.70;4.20;;;;;;;10.46;72.86;98926.94;219690;1277;22564;-70
2022/07/16 02:26:40;;;;;;;7.10;4.50;;;;;;;10.39;72.85;98920.63;219591;1278;22649;-70
2022/07/16 02:31:53;;;;;;;5.50;4.60;;;;;;;10.33;72.94;98917.89;219616;1277;25345;-70
2022/07/16 02:36:56;;;;;;;7.70;4.60;;;;;;;10.28;73.11;98920.60;219916;1277;22749;-70
2022/07/16 02:41:59;;;;;;;6.00;4.80;;;;;;;10.22;73.29;98920.08;219882;1278;22621;-70
2022/07/16 02:47:01;;;;;;;6.70;4.10;;;;;;;10.19;73.69;98915.13;219838;1279;25467;-70
2022/07/16 02:52:04;;;;;;;5.00;3.80;;;;;;;10.16;73.98;98917.71;219848;1278;24301;-69
2022/07/16 02:57:06;;;;;;;4.80;3.70;;;;;;;10.12;74.13;98923.11;219704;1278;22550;-70
2022/07/16 03:02:09;;;;;;;5.40;3.70;;;;;;;10.08;74.65;98928.70;219658;1277;22559;-69
2022/07/16 03:07:11;;;;;;;5.40;4.10;;;;;;;10.07;75.24;98925.34;219866;1278;24268;-70
2022/07/16 03:12:13;;;;;;;6.00;4.30;;;;;;;10.08;75.63;98927.52;219932;1277;24388;-70
2022/07/16 03:17:15;;;;;;;6.40;4.10;;;;;;;10.07;75.92;98927.85;219735;1277;22538;-69
2022/07/16 03:22:18;;;;;;;9.60;4.40;;;;;;;10.06;76.03;98927.33;219683;1278;24631;-69
2022/07/16 03:27:20;;;;;;;7.60;4.50;;;;;;;10.06;76.30;98924.17;219821;1278;24218;-69
2022/07/16 03:32:22;;;;;;;6.40;4.80;;;;;;;10.07;76.25;98915.65;219726;1277;26397;-70
2022/07/16 03:37:25;;;;;;;9.10;5.00;;;;;;;10.22;76.47;98918.35;219610;1277;25258;-70
2022/07/16 03:42:28;;;;;;;6.20;5.20;;;;;;;10.48;76.13;98926.65;219678;1277;26525;-69
2022/07/16 03:47:30;;;;;;;6.30;5.20;;;;;;;10.85;75.77;98932.67;219675;1278;24799;-70
2022/07/16 03:52:32;;;;;;;6.70;5.40;;;;;;;11.02;75.09;98925.34;219703;1277;22578;-69
2022/07/16 03:57:34;;;;;;;8.30;5.60;;;;;;;11.25;74.91;98931.06;219647;1278;25415;-70
2022/07/16 04:02:37;;;;;;;7.00;4.60;;;;;;;11.46;74.21;98926.54;219645;1277;23967;-70
2022/07/16 04:07:39;;;;;;;6.90;4.90;;;;;;;11.53;73.80;98924.55;219779;1278;25020;-69
2022/07/16 04:12:41;;;;;;;7.50;4.90;;;;;;;11.55;73.64;98927.86;219516;1278;22589;-71
2022/07/16 04:17:43;;;;;;;8.60;4.60;;;;;;;11.49;73.51;98930.84;219796;1278;23845;-70
2022/07/16 04:22:46;;;;;;;7.30;5.20;;;;;;;11.49;73.69;98934.98;219788;1277;24383;-72
2022/07/16 04:27:48;;;;;;;6.40;4.60;;;;;;;11.55;73.85;98929.73;219990;1277;22592;-69
2022/07/16 04:32:51;;;;;;;8.30;4.60;;;;;;;11.64;73.97;98929.77;220012;1278;24384;-70
2022/07/16 04:38:06;;;;;;;10.00;5.40;;;;;;;11.78;73.77;98932.08;219803;1278;25368;-70
2022/07/16 04:43:15;;;;;;;5.00;4.40;;;;;;;11.95;73.83;98934.29;219909;1278;22573;-70
2022/07/16 04:48:17;;;;;;;6.40;5.10;;;;;;;12.04;73.18;98936.86;219914;1278;24850;-71
2022/07/16 04:53:20;;;;;;;5.40;4.30;;;;;;;12.13;73.02;98937.02;219737;1277;22604;-69
2022/07/16 04:58:22;;;;;;;7.70;4.80;;;;;;;12.29;73.13;98932.78;219647;1278;25433;-69
2022/07/16 05:03:24;;;;;;;8.70;7.50;;;;;;;12.45;72.95;98930.40;219820;1279;24105;-70
2022/07/16 05:08:27;;;;;;;15.20;13.50;;;;;;;12.67;73.04;98926.34;219770;1278;25510;-70
2022/07/16 05:13:29;;;;;;;8.20;7.30;;;;;;;12.94;72.65;98928.88;219720;1277;22537;-69
2022/07/16 05:18:31;;;;;;;6.50;5.10;;;;;;;13.20;72.33;98932.82;219790;1278;25080;-70
2022/07/16 05:23:47;;;;;;;5.60;4.20;;;;;;;13.45;72.08;98930.73;219703;1278;22610;-70
2022/07/16 05:29:10;;;;;;;6.50;4.10;;;;;;;13.83;71.51;98932.30;219737;1278;24055;-70
2022/07/16 05:34:12;;;;;;;6.00;4.00;;;;;;;14.11;71.03;98928.50;219717;1278;23129;-71
2022/07/16 05:39:14;;;;;;;5.60;3.60;;;;;;;14.35;70.27;98930.00;219665;1278;25348;-70
2022/07/16 05:44:16;;;;;;;4.30;3.70;;;;;;;14.49;69.63;98931.08;219655;1279;22560;-69
2022/07/16 05:49:19;;;;;;;5.90;3.70;;;;;;;14.63;69.46;98924.30;219628;1278;22758;-70
2022/07/16 05:54:21;;;;;;;6.00;4.00;;;;;;;14.88;69.43;98929.78;219660;1278;22551;-69
2022/07/16 05:59:23;;;;;;;5.60;4.00;;;;;;;15.08;69.07;98938.22;219749;1278;22624;-70
2022/07/16 06:04:26;;;;;;;4.30;3.50;;;;;;;15.33;69.03;98938.42;219777;1280;24441;-71
2022/07/16 06:09:28;;;;;;;4.00;3.30;;;;;;;15.71;68.17;98936.90;219684;1280;22623;-70
2022/07/16 06:14:30;;;;;;;3.50;2.60;;;;;;;15.85;66.64;98933.38;219733;1280;24291;-70
2022/07/16 06:19:33;;;;;;;3.20;2.20;;;;;;;15.92;66.15;98931.50;219755;1278;22682;-70
2022/07/16 06:24:35;;;;;;;4.00;2.10;;;;;;;16.15;66.38;98928.53;219698;1278;24243;-69
2022/07/16 06:29:38;;;;;;;3.80;2.20;;;;;;;16.52;65.84;98924.04;219805;1278;22586;-69
2022/07/16 06:34:51;;;;;;;4.30;2.20;;;;;;;16.75;65.19;98926.88;219840;1278;22609;-70
2022/07/16 06:40:02;;;;;;;5.00;2.00;;;;;;;16.91;64.19;98934.49;219722;1278;23038;-69
2022/07/16 06:45:05;;;;;;;2.90;1.60;;;;;;;16.91;63.25;98929.02;219984;1278;22571;-71
2022/07/16 06:50:08;;;;;;;2.90;2.10;;;;;;;17.02;63.48;98925.33;220091;1279;22540;-72
2022/07/16 06:55:10;;;;;;;2.50;1.60;;;;;;;17.28;63.67;98922.45;219968;1279;24309;-70
2022/07/16 07:00:13;;;;;;;2.90;1.30;;;;;;;17.51;60.75;98922.83;220100;1279;22544;-70
2022/07/16 07:05:15;;;;;;;3.00;1.60;;;;;;;17.67;59.56;98919.86;219948;1279;22531;-70
2022/07/16 07:10:19;;;;;;;5.20;1.60;;;;;;;17.96;59.64;98911.08;220224;1279;24210;-71
2022/07/16 07:15:22;;;;;;;2.70;1.00;;;;;;;18.10;57.73;98911.33;219995;1279;26365;-70
2022/07/16 07:20:24;;;;;;;5.80;1.30;;;;;;;18.24;57.28;98911.94;219995;1278;25357;-69
2022/07/16 07:25:35;;;;;;;3.70;0.90;;;;;;;18.42;56.31;98903.06;220014;1278;22535;-70
2022/07/16 07:31:12;;;;;;;2.70;0.90;;;;;;;18.66;56.09;98897.63;220125;1279;22583;-70
2022/07/16 07:36:17;;;;;;;2.60;0.90;;;;;;;18.88;54.56;98898.44;219921;1279;23766;-70
2022/07/16 07:41:20;;;;;;;3.80;0.80;;;;;;;19.09;53.35;98894.89;220232;1279;24384;-70
2022/07/16 07:46:25;;;;;;;2.40;0.90;;;;;;;19.31;52.45;98896.00;220585;1280;22610;-72
2022/07/16 07:51:28;;;;;;;2.10;1.00;;;;;;;19.44;51.49;98893.80;220916;1277;25484;-70
2022/07/16 07:56:30;;;;;;;1.80;0.90;;;;;;;19.47;50.99;98884.49;221035;1278;24817;-70
2022/07/16 08:01:32;;;;;;;5.40;1.00;;;;;;;19.51;50.68;98892.66;220920;1280;22563;-69
2022/07/16 08:06:36;;;;;;;7.70;1.10;;;;;;;19.60;50.95;98876.23;220285;1277;22572;-69
2022/07/16 08:11:38;;;;;;;5.80;1.10;;;;;;;19.79;50.55;98874.11;220073;1278;24410;-68
2022/07/16 08:16:41;;;;;;;1.40;0.80;;;;;;;19.96;49.93;98873.48;220233;1280;23744;-69
2022/07/16 08:22:03;;;;;;;1.50;0.80;;;;;;;19.98;48.44;98873.69;218333;1279;22557;-69
2022/07/16 08:27:19;;;;;;;2.20;0.90;;;;;;;20.06;48.00;98875.39;220005;1280;22576;-69
2022/07/16 08:32:21;;;;;;;1.80;0.90;;;;;;;20.21;46.71;98871.79;220210;1278;22560;-69
2022/07/16 08:37:36;;;;;;;2.50;0.80;;;;;;;20.28;45.59;98872.12;220086;1278;23048;-69
2022/07/16 08:42:39;;;;;;;5.60;1.00;;;;;;;20.33;45.44;98866.88;219942;1278;23068;-69
2022/07/16 08:47:42;;;;;;;1.50;0.90;;;;;;;20.58;45.94;98861.94;219982;1279;22570;-69
2022/07/16 08:52:50;;;;;;;1.50;1.10;;;;;;;20.73;44.43;98858.60;220073;1278;24356;-70
2022/07/16 08:57:56;;;;;;;2.60;1.20;;;;;;;20.85;43.10;98857.24;220178;1280;22672;-69
2022/07/16 09:02:59;;;;;;;1.80;1.10;;;;;;;20.95;43.85;98857.68;220691;1276;22616;-68
2022/07/16 09:08:01;;;;;;;1.50;0.80;;;;;;;21.12;44.14;98857.72;220649;1275;22575;-69
2022/07/16 09:13:05;;;;;;;1.20;1.10;;;;;;;21.17;43.79;98862.95;220670;1274;25013;-68
2022/07/16 09:18:32;;;;;;;2.90;1.20;;;;;;;21.23;43.53;98861.52;220775;1274;25565;-69
2022/07/16 09:23:38;;;;;;;2.30;1.20;;;;;;;21.42;43.58;98857.79;220688;1274;22721;-69
2022/07/16 09:28:45;;;;;;;1.20;0.90;;;;;;;21.67;43.32;98855.58;220614;1276;24807;-69
2022/07/16 09:34:20;;;;;;;2.00;1.30;;;;;;;21.92;42.76;98853.92;220755;1275;23813;-69
2022/07/16 09:39:22;;;;;;;2.40;1.40;;;;;;;22.13;41.88;98850.00;220833;1275;25393;-69
2022/07/16 09:44:34;;;;;;;3.20;2.60;;;;;;;22.09;41.88;98844.73;220613;1276;22689;-70
2022/07/16 09:49:38;;;;;;;1.40;1.10;;;;;;;22.08;41.62;98842.04;220581;1276;22550;-70
2022/07/16 09:54:40;;;;;;;3.10;2.70;;;;;;;22.23;41.19;98839.49;220475;1279;23804;-70
2022/07/16 09:59:44;;;;;;;3.00;1.10;;;;;;;22.49;41.17;98838.14;220599;1277;25545;-69
2022/07/16 10:05:12;;;;;;;1.50;1.10;;;;;;;22.85;40.53;98839.98;220756;1274;22732;-69
2022/07/16 10:10:15;;;;;;;3.30;1.90;;;;;;;23.01;40.29;98831.91;220672;1276;24262;-68
2022/07/16 10:15:17;;;;;;;3.50;2.60;;;;;;;22.93;39.35;98835.55;220649;1276;22619;-69
2022/07/16 10:20:20;;;;;;;2.40;2.10;;;;;;;22.60;39.85;98828.55;220551;1277;22566;-71
2022/07/16 10:25:26;;;;;;;2.30;1.70;;;;;;;22.34;39.89;98824.56;220608;1276;24957;-69
2022/07/16 10:30:32;;;;;;;19.90;17.00;;;;;;;22.26;40.40;98819.73;220660;1276;22538;-69
2022/07/16 10:35:44;;;;;;;3.30;2.30;;;;;;;22.27;41.35;98814.91;221025;1274;22593;-69
2022/07/16 10:41:11;;;;;;;2.80;1.50;;;;;;;22.26;41.18;98811.71;221011;1277;22582;-68
2022/07/16 10:46:25;;;;;;;2.90;1.50;;;;;;;22.63;41.38;98808.93;220596;1274;22557;-69
2022/07/16 10:51:27;;;;;;;1.70;1.20;;;;;;;23.15;39.99;98803.46;220694;1274;22568;-68
2022/07/16 10:56:56;;;;;;;2.80;1.90;;;;;;;23.61;39.35;98796.39;220695;1274;22677;-69
2022/07/16 11:02:11;;;;;;;1.50;1.40;;;;;;;24.19;37.20;98798.96;220659;1274;25262;-66
2022/07/16 11:07:34;;;;;;;2.80;2.20;;;;;;;24.33;36.34;98785.38;220364;1274;25398;-68
2022/07/16 11:12:37;;;;;;;1.90;1.60;;;;;;;24.62;37.75;98777.83;220419;1274;22542;-69
2022/07/16 11:17:40;;;;;;;1.60;1.40;;;;;;;24.99;35.42;98771.20;220304;1274;22924;-69
2022/07/16 11:22:56;;;;;;;1.40;1.30;;;;;;;24.54;35.67;98781.69;220331;1274;24232;-69
2022/07/16 11:28:32;;;;;;;2.00;1.80;;;;;;;24.24;35.99;98780.47;220347;1274;22783;-69
2022/07/16 11:34:03;;;;;;;1.60;1.20;;;;;;;24.35;36.43;98774.52;220320;1274;22598;-69
2022/07/16 11:39:09;;;;;;;1.30;1.20;;;;;;;24.51;35.35;98780.73;220287;1275;24208;-68
2022/07/16 11:44:14;;;;;;;2.00;1.20;;;;;;;24.41;35.86;98779.25;220231;1277;24328;-70
2022/07/16 11:49:30;;;;;;;3.10;1.30;;;;;;;24.17;35.56;98784.33;220351;1277;22658;-69
2022/07/16 11:54:38;;;;;;;2.60;1.30;;;;;;;24.22;36.29;98781.63;220365;1275;22626;-70
2022/07/16 11:59:47;;;;;;;2.40;1.70;;;;;;;24.41;36.04;98777.06;220431;1274;26463;-70
2022/07/16 12:04:54;;;;;;;2.20;1.50;;;;;;;24.30;35.84;98776.77;220463;1275;25418;-71
2022/07/16 12:10:06;;;;;;;1.50;1.10;;;;;;;24.13;35.57;98774.29;220487;1274;22547;-71
2022/07/16 12:15:15;;;;;;;1.10;1.00;;;;;;;24.17;36.32;98771.11;220349;1276;24306;-69
2022/07/16 12:20:21;;;;;;;2.20;1.30;;;;;;;24.24;35.25;98769.60;220303;1277;22615;-70
2022/07/16 12:25:38;;;;;;;1.60;1.50;;;;;;;24.02;35.87;98775.54;220343;1275;24320;-70
2022/07/16 12:30:53;;;;;;;2.40;1.60;;;;;;;24.01;36.09;98771.77;220489;1275;23348;-69
2022/07/16 12:36:01;;;;;;;2.00;1.20;;;;;;;23.84;35.53;98774.35;220377;1275;24268;-70
2022/07/16 12:41:14;;;;;;;1.30;0.90;;;;;;;23.61;35.99;98768.83;220561;1275;22929;-70
2022/07/16 12:46:17;;;;;;;1.70;1.10;;;;;;;24.11;36.22;98767.31;220409;1274;22713;-70
2022/07/16 12:51:22;;;;;;;1.50;1.20;;;;;;;24.35;35.38;98756.54;220384;1277;22532;-70
2022/07/16 13:01:48;;;;;;;1.50;1.20;;;;;;;24.76;34.97;98759.29;220538;1274;22923;-70
2022/07/16 13:06:51;;;;;;;3.40;1.00;;;;;;;25.07;34.41;98758.64;220375;1277;25425;-68
2022/07/16 13:12:03;;;;;;;1.30;1.00;;;;;;;25.14;33.44;98757.72;220444;1277;24333;-69
2022/07/16 13:17:06;;;;;;;2.30;1.00;;;;;;;25.06;32.56;98754.40;220466;1274;25406;-71
2022/07/16 13:22:08;;;;;;;0.90;0.70;;;;;;;24.79;33.01;98761.11;220273;1274;24381;-69
2022/07/16 13:27:11;;;;;;;2.50;1.30;;;;;;;24.49;33.25;98762.17;220377;1275;24299;-71
2022/07/16 13:32:49;;;;;;;1.20;0.90;;;;;;;24.35;33.88;98765.30;220413;1279;24367;-69
2022/07/16 13:37:50;;;;;;;2.50;1.70;;;;;;;24.31;33.88;98758.39;220285;1278;25334;-69
2022/07/16 13:42:54;;;;;;;1.10;0.90;;;;;;;24.22;34.16;98762.63;220182;1274;24342;-70
2022/07/16 13:48:00;;;;;;;2.60;1.40;;;;;;;24.19;34.53;98765.97;220236;1274;25522;-70
2022/07/16 13:53:06;;;;;;;0.80;0.80;;;;;;;24.27;34.80;98770.56;220382;1274;22584;-69
2022/07/16 13:58:17;;;;;;;1.40;1.30;;;;;;;24.23;34.77;98772.66;220335;1274;23117;-69
2022/07/16 14:03:25;;;;;;;11.40;9.20;;;;;;;24.01;34.89;98771.38;220539;1279;23186;-69
2022/07/16 14:08:29;;;;;;;1.50;1.20;;;;;;;23.70;35.04;98765.71;220559;1274;22589;-69
2022/07/16 14:13:32;;;;;;;1.80;1.60;;;;;;;23.37;35.47;98773.11;220405;1274;23006;-70
2022/07/16 14:18:35;;;;;;;3.20;1.00;;;;;;;23.06;35.80;98784.14;220352;1274;25298;-70
2022/07/16 14:23:38;;;;;;;1.90;1.20;;;;;;;22.74;36.25;98779.59;220332;1278;25403;-69
2022/07/16 14:28:40;;;;;;;2.20;1.50;;;;;;;22.40;36.81;98787.45;220546;1278;22587;-70
2022/07/16 14:33:47;;;;;;;2.30;1.70;;;;;;;22.10;37.45;98789.40;220019;1274;25268;-71
2022/07/16 14:38:49;;;;;;;5.30;2.40;;;;;;;21.86;37.99;98798.91;220338;1278;22569;-69
2022/07/16 14:43:51;;;;;;;3.70;1.00;;;;;;;21.59;38.94;98806.83;220248;1275;24112;-70
2022/07/16 14:48:58;;;;;;;2.10;0.90;;;;;;;21.21;40.12;98827.86;220087;1274;22548;-70
2022/07/16 14:54:20;;;;;;;2.60;1.00;;;;;;;20.69;41.31;98834.45;220326;1274;25521;-70
2022/07/16 14:59:23;;;;;;;1.70;0.90;;;;;;;20.27;42.17;98855.46;220345;1274;25349;-68
2022/07/16 15:04:25;;;;;;;2.20;1.00;;;;;;;19.92;44.04;98893.88;220348;1278;22645;-69
2022/07/16 15:09:28;;;;;;;2.10;1.20;;;;;;;19.25;48.63;98890.22;220371;1275;22559;-70
2022/07/16 15:14:30;;;;;;;4.70;1.80;;;;;;;18.29;52.29;98885.45;220402;1274;24382;-69
2022/07/16 15:19:33;;;;;;;1.30;1.20;;;;;;;17.68;54.63;98890.38;220367;1278;24332;-69
2022/07/16 15:24:35;;;;;;;1.10;0.70;;;;;;;17.33;56.45;98911.11;220321;1279;22566;-69
2022/07/16 15:29:38;;;;;;;1.20;0.80;;;;;;;16.94;57.42;98908.44;220317;1277;22564;-72
2022/07/16 15:34:40;;;;;;;1.10;0.60;;;;;;;16.59;57.96;98912.88;220355;1274;24333;-70
2022/07/16 15:39:42;;;;;;;0.70;0.60;;;;;;;16.34;58.73;98928.70;220519;1275;22555;-69
2022/07/16 15:44:45;;;;;;;1.10;0.70;;;;;;;16.14;59.78;98931.59;220388;1275;25226;-68
2022/07/16 15:49:47;;;;;;;0.90;0.60;;;;;;;15.98;60.78;98941.38;220381;1276;22538;-69
2022/07/16 15:54:49;;;;;;;0.80;0.80;;;;;;;15.80;61.93;98940.78;220455;1275;22703;-69
2022/07/16 15:59:52;;;;;;;1.00;0.70;;;;;;;15.64;62.59;98935.43;220494;1275;22542;-69
2022/07/16 16:04:57;;;;;;;0.60;0.60;;;;;;;15.54;63.63;98940.02;220416;1274;23144;-69
2022/07/16 16:09:59;;;;;;;1.20;1.00;;;;;;;15.53;64.37;98925.66;220428;1274;25424;-71
2022/07/16 16:15:03;;;;;;;1.30;0.90;;;;;;;15.71;64.83;98928.02;220427;1274;25476;-70
2022/07/16 16:20:06;;;;;;;1.30;0.90;;;;;;;16.03;64.99;98920.45;220359;1277;22547;-71
2022/07/16 16:25:10;;;;;;;1.90;1.50;;;;;;;16.37;64.84;98916.33;220414;1275;22536;-69
2022/07/16 16:30:13;;;;;;;3.40;2.00;;;;;;;16.75;64.97;98923.98;220428;1275;22540;-70
2022/07/16 16:35:16;;;;;;;1.10;1.00;;;;;;;17.05;64.72;98920.55;220328;1274;22578;-70
2022/07/16 16:40:26;;;;;;;1.90;1.10;;;;;;;17.26;64.21;98919.19;220471;1274;22627;-69
2022/07/16 16:45:29;;;;;;;1.60;0.90;;;;;;;17.37;63.60;98917.96;220200;1278;23967;-73
2022/07/16 16:50:32;;;;;;;1.10;0.70;;;;;;;17.47;62.99;98924.55;220382;1274;24301;-71
2022/07/16 16:55:41;;;;;;;2.60;0.90;;;;;;;17.51;62.65;98927.48;220451;1274;22573;-71
2022/07/16 17:00:47;;;;;;;;;;;;;;;17.55;62.47;98925.98;220451;1274;25510;-68
2022/07/16 17:05:51;;;;;;;1.00;1.00;;;;;;;17.64;62.45;98926.01;220564;1274;24310;-68
2022/07/16 17:10:54;;;;;;;0.80;0.80;;;;;;;17.65;62.10;98933.71;220403;1274;24309;-69
2022/07/16 17:15:58;;;;;;;1.60;0.90;;;;;;;17.57;61.82;98934.89;220443;1275;25306;-71
2022/07/16 17:21:00;;;;;;;1.10;0.90;;;;;;;17.50;61.71;98938.14;220389;1275;23611;-70
2022/07/16 17:26:04;;;;;;;1.30;1.20;;;;;;;17.45;61.78;98947.69;220182;1277;25369;-68
2022/07/16 17:31:07;;;;;;;2.20;2.00;;;;;;;17.43;61.85;98962.00;220376;1274;25261;-69
2022/07/16 17:36:13;;;;;;;2.30;1.80;;;;;;;17.39;62.07;98975.16;220430;1274;25328;-68
2022/07/16 17:41:19;;;;;;;3.50;1.20;;;;;;;17.33;62.22;98986.36;220410;1275;22602;-69
2022/07/16 17:46:25;;;;;;;1.30;1.20;;;;;;;17.25;62.47;99001.14;220370;1274;22538;-68
2022/07/16 17:51:44;;;;;;;1.50;1.20;;;;;;;17.15;62.71;99000.98;220352;1275;24114;-69
2022/07/16 17:56:46;;;;;;;6.30;5.00;;;;;;;17.05;63.39;99017.61;220336;1274;25436;-69
2022/07/16 18:01:48;;;;;;;2.20;1.10;;;;;;;16.94;64.92;99033.66;220209;1274;25328;-70
2022/07/16 18:06:51;;;;;;;1.60;1.20;;;;;;;16.70;64.98;99059.71;220347;1274;25382;-70
2022/07/16 18:12:07;;;;;;;2.80;1.50;;;;;;;16.11;66.70;99087.48;220418;1275;25585;-70
2022/07/16 18:17:17;;;;;;;2.00;1.70;;;;;;;15.23;67.70;99051.67;220428;1274;24114;-71
2022/07/16 18:22:36;;;;;;;2.10;1.80;;;;;;;14.63;69.90;99056.50;220130;1274;22551;-71
2022/07/16 18:27:53;;;;;;;2.80;1.50;;;;;;;14.27;71.50;99086.20;220426;1274;22540;-70
2022/07/16 18:33:16;;;;;;;3.30;1.90;;;;;;;14.07;72.51;99105.87;220404;1274;22711;-71
2022/07/16 18:39:06;;;;;;;34.90;27.10;;;;;;;13.92;73.30;99105.23;220849;1274;22933;-70
2022/07/16 18:44:09;;;;;;;5.30;3.50;;;;;;;13.85;73.81;99111.84;220570;1274;24492;-71
2022/07/16 18:49:11;;;;;;;4.20;3.20;;;;;;;13.77;74.12;99111.58;220467;1274;24266;-71
2022/07/16 18:54:14;;;;;;;3.10;2.10;;;;;;;13.69;74.44;99116.34;220423;1274;24431;-70
2022/07/16 18:59:16;;;;;;;3.20;2.10;;;;;;;13.60;74.65;99129.38;220375;1274;22544;-71
2022/07/16 19:04:27;;;;;;;2.20;1.60;;;;;;;13.50;74.95;99144.09;220424;1274;22571;-70
2022/07/16 19:09:30;;;;;;;1.40;1.30;;;;;;;13.41;75.36;99151.10;220403;1274;24572;-71
2022/07/16 19:14:32;;;;;;;1.20;1.10;;;;;;;13.35;76.41;99125.91;220313;1274;22583;-71
2022/07/16 19:19:35;;;;;;;2.20;1.80;;;;;;;13.27;76.87;99131.41;220371;1274;22562;-71
2022/07/16 19:24:38;;;;;;;2.50;1.80;;;;;;;13.16;77.17;99138.60;220352;1274;24274;-70
2022/07/16 19:29:41;;;;;;;2.50;1.70;;;;;;;13.09;77.77;99147.02;220358;1275;25320;-70
2022/07/16 19:34:56;;;;;;;3.60;2.00;;;;;;;13.06;78.37;99156.20;220415;1276;22610;-75
2022/07/16 19:39:59;;;;;;;5.30;1.90;;;;;;;13.00;78.81;99160.11;220352;1274;22579;-68
2022/07/16 19:45:02;;;;;;;3.30;2.20;;;;;;;12.92;79.06;99158.86;220431;1274;22606;-69
2022/07/16 19:50:06;;;;;;;3.70;2.00;;;;;;;12.85;79.48;99163.33;220306;1274;24310;-68
2022/07/16 20:00:39;;;;;;;2.50;2.30;;;;;;;12.73;80.34;99186.38;220349;1274;22566;-70
2022/07/16 20:05:42;;;;;;;53.90;39.80;;;;;;;12.69;81.34;99196.05;220334;1275;22721;-70
2022/07/16 20:10:44;;;;;;;4.60;4.10;;;;;;;12.70;82.28;99200.02;220347;1274;25429;-69
2022/07/16 20:15:46;;;;;;;2.70;2.30;;;;;;;12.61;81.91;99204.55;220278;1274;25236;-68
2022/07/16 20:20:49;;;;;;;2.40;2.20;;;;;;;12.45;81.36;99211.92;220320;1274;22571;-69
2022/07/16 20:25:51;;;;;;;5.00;2.00;;;;;;;12.31;81.19;99214.80;220413;1274;22657;-70
2022/07/16 20:30:54;;;;;;;3.70;2.00;;;;;;;12.15;81.33;99213.91;220338;1276;22695;-68
2022/07/16 20:35:57;;;;;;;2.70;2.20;;;;;;;12.01;81.26;99220.22;220361;1275;22597;-69
2022/07/16 20:40:59;;;;;;;2.70;2.20;;;;;;;11.89;81.53;99222.25;220342;1274;25440;-67
2022/07/16 20:46:02;;;;;;;3.70;2.20;;;;;;;11.77;81.61;99229.84;220391;1274;23368;-69
2022/07/16 20:51:16;;;;;;;2.90;2.20;;;;;;;11.68;81.95;99235.89;220174;1274;23855;-70
2022/07/16 20:56:19;;;;;;;2.90;2.00;;;;;;;11.61;82.16;99234.89;220353;1275;22580;-69
2022/07/16 21:01:21;;;;;;;4.40;1.70;;;;;;;11.54;82.64;99233.73;220363;1274;23803;-69
2022/07/16 21:06:24;;;;;;;3.20;2.20;;;;;;;11.47;83.03;99235.40;220334;1274;22539;-69
2022/07/16 21:11:28;;;;;;;3.20;2.30;;;;;;;11.41;83.22;99240.88;220307;1274;25430;-68
2022/07/16 21:16:30;;;;;;;2.90;2.40;;;;;;;11.35;83.66;99245.10;220400;1274;24230;-69
2022/07/16 21:21:33;;;;;;;2.50;2.00;;;;;;;11.30;83.76;99245.85;220424;1275;26687;-70
2022/07/16 21:26:48;;;;;;;3.20;2.20;;;;;;;11.27;84.26;99250.38;220445;1274;22541;-69
2022/07/16 21:32:09;;;;;;;2.30;2.10;;;;;;;11.23;84.20;99254.60;220529;1274;22596;-68
2022/07/16 21:37:24;;;;;;;2.90;2.40;;;;;;;11.20;84.08;99258.27;220419;1274;23811;-69
2022/07/16 21:42:27;;;;;;;3.10;2.40;;;;;;;11.17;84.09;99266.93;220524;1274;22548;-68
2022/07/16 21:47:29;;;;;;;3.30;2.50;;;;;;;11.14;83.98;99269.30;220412;1275;22607;-68
2022/07/16 21:52:32;;;;;;;3.90;2.50;;;;;;;11.12;84.12;99271.52;219392;1274;22729;-69
2022/07/16 21:57:35;;;;;;;2.80;2.50;;;;;;;11.09;83.95;99270.48;220480;1277;22585;-69
2022/07/16 22:02:38;;;;;;;2.80;2.60;;;;;;;11.04;84.11;99276.94;220520;1274;22577;-69
2022/07/16 22:07:41;;;;;;;2.50;2.30;;;;;;;10.99;84.06;99284.05;220571;1274;23852;-69
2022/07/16 22:12:45;;;;;;;2.50;2.30;;;;;;;10.94;84.44;99290.24;220522;1274;25476;-69
2022/07/16 22:17:48;;;;;;;2.90;2.30;;;;;;;10.89;84.33;99296.66;220460;1274;23289;-69
2022/07/16 22:22:56;;;;;;;2.70;2.50;;;;;;;10.85;84.85;99302.41;220423;1274;23794;-69
2022/07/16 22:27:58;;;;;;;3.10;2.40;;;;;;;10.81;84.98;99302.86;220194;1275;25257;-69
2022/07/16 22:33:01;;;;;;;2.80;2.60;;;;;;;10.75;84.80;99308.15;220376;1274;25315;-69
2022/07/16 22:38:04;;;;;;;3.90;2.80;;;;;;;10.71;84.96;99316.59;220386;1274;25278;-69
2022/07/16 22:48:29;;;;;;;3.30;2.60;;;;;;;10.62;85.45;99328.25;220411;1274;25290;-69
2022/07/16 22:53:32;;;;;;;3.40;2.50;;;;;;;10.56;85.31;99335.09;220432;1274;22555;-69
2022/07/16 22:58:37;;;;;;;2.40;2.20;;;;;;;10.51;85.38;99341.90;220295;1275;25494;-70
2022/07/16 23:03:40;;;;;;;3.30;3.00;;;;;;;10.47;85.40;99342.30;220366;1274;25455;-67
2022/07/16 23:08:43;;;;;;;3.40;2.80;;;;;;;10.43;85.38;99344.77;220343;1274;25427;-69
2022/07/16 23:13:46;;;;;;;3.60;2.60;;;;;;;10.40;85.71;99353.14;220319;1274;22907;-70
2022/07/16 23:18:48;;;;;;;4.40;2.90;;;;;;;10.37;85.58;99348.38;220371;1275;23300;-69
2022/07/16 23:24:01;;;;;;;2.90;2.60;;;;;;;10.32;85.54;99358.39;220408;1274;22536;-68
2022/07/16 23:29:03;;;;;;;3.00;2.60;;;;;;;10.26;85.62;99357.05;220397;1274;23744;-67
2022/07/16 23:34:06;;;;;;;4.30;2.60;;;;;;;10.22;85.83;99359.20;220323;1275;22547;-69
2022/07/16 23:39:08;;;;;;;4.30;2.70;;;;;;;10.19;85.66;99362.05;220549;1274;24313;-69
2022/07/16 23:44:10;;;;;;;6.50;2.90;;;;;;;10.17;85.88;99364.15;220426;1274;24215;-68
2022/07/16 23:49:33;;;;;;;4.00;2.90;;;;;;;10.18;86.19;99363.82;220346;1275;24225;-70
2022/07/16 23:54:35;;;;;;;2.60;2.40;;;;;;;10.16;86.33;99359.77;220362;1274;22635;-68
2022/07/16 23:59:39;;;;;;;5.70;2.60;;;;;;;10.14;86.25;99365.44;220383;1274;24447;-69
